createdAt,value
2018-05-17T00:01:14.982Z,17.33
2018-05-17T00:03:42.400Z,18.77
2018-05-17T00:06:09.848Z,18.97
2018-05-17T00:08:37.492Z,19.10
2018-05-17T00:11:05.205Z,19.80
2018-05-17T00:13:32.509Z,20.10
2018-05-17T00:15:59.859Z,22.77
2018-05-17T00:18:27.211Z,19.47
2018-05-17T00:20:54.490Z,21.27
2018-05-17T00:23:21.779Z,22.73
2018-05-17T00:25:49.055Z,21.60
2018-05-17T00:28:16.329Z,24.17
2018-05-17T00:30:43.751Z,22.60
2018-05-17T00:33:11.163Z,23.10
2018-05-17T00:35:38.525Z,26.13
2018-05-17T00:38:06.063Z,24.37
2018-05-17T00:40:33.370Z,24.40
2018-05-17T00:43:00.693Z,24.40
2018-05-17T00:45:28.026Z,24.20
2018-05-17T00:47:55.389Z,22.97
2018-05-17T00:50:22.621Z,22.37
2018-05-17T00:52:55.827Z,24.70
2018-05-17T00:55:23.124Z,22.40
2018-05-17T00:57:50.450Z,23.20
2018-05-17T01:00:17.742Z,25.30
2018-05-17T01:02:45.025Z,23.60
2018-05-17T01:05:12.354Z,22.63
2018-05-17T01:07:39.732Z,23.33
2018-05-17T01:10:07.421Z,22.57
2018-05-17T01:12:34.716Z,21.90
2018-05-17T01:15:02.034Z,22.17
2018-05-17T01:17:29.458Z,20.30
2018-05-17T01:19:56.914Z,21.47
2018-05-17T01:22:24.200Z,19.87
2018-05-17T01:24:51.464Z,20.93
2018-05-17T01:27:18.774Z,20.30
2018-05-17T01:29:46.061Z,22.17
2018-05-17T01:32:13.440Z,19.13
2018-05-17T01:34:40.750Z,20.87
2018-05-17T01:37:13.897Z,19.27
2018-05-17T01:39:41.277Z,19.97
2018-05-17T01:42:08.891Z,18.70
2018-05-17T01:44:36.341Z,18.37
2018-05-17T01:47:03.635Z,16.90
2018-05-17T01:49:31.653Z,19.30
2018-05-17T01:51:58.951Z,15.53
2018-05-17T01:54:26.229Z,16.10
2018-05-17T01:56:54.154Z,15.63
2018-05-17T01:59:21.457Z,17.57
2018-05-17T02:01:48.753Z,15.03
2018-05-17T02:04:16.038Z,16.37
2018-05-17T02:06:43.373Z,15.40
2018-05-17T02:09:10.725Z,15.20
2018-05-17T02:11:38.289Z,13.30
2018-05-17T02:14:05.804Z,14.97
2018-05-17T02:16:33.126Z,14.27
2018-05-17T02:19:00.425Z,15.40
2018-05-17T02:21:27.822Z,16.00
2018-05-17T02:23:56.042Z,16.50
2018-05-17T02:26:23.304Z,18.60
2018-05-17T02:28:50.601Z,18.93
2018-05-17T02:31:17.910Z,20.00
2018-05-17T02:33:45.208Z,22.70
2018-05-17T02:36:12.554Z,22.73
2018-05-17T02:38:39.933Z,20.20
2018-05-17T02:41:07.369Z,24.03
2018-05-17T02:43:34.723Z,24.00
2018-05-17T02:46:02.025Z,24.13
2018-05-17T02:48:29.361Z,22.97
2018-05-17T02:50:57.593Z,27.23
2018-05-17T02:53:24.872Z,27.97
2018-05-17T02:55:52.158Z,26.13
2018-05-17T02:58:19.436Z,24.90
2018-05-17T03:00:46.730Z,27.63
2018-05-17T03:03:14.127Z,25.23
2018-05-17T03:05:41.458Z,25.20
2018-05-17T03:08:08.866Z,26.80
2018-05-17T03:10:37.145Z,24.90
2018-05-17T03:13:04.424Z,27.03
2018-05-17T03:15:32.646Z,27.97
2018-05-17T03:17:59.988Z,26.60
2018-05-17T03:20:27.316Z,24.60
2018-05-17T03:22:54.618Z,24.70
2018-05-17T03:25:21.919Z,23.57
2018-05-17T03:27:49.223Z,24.63
2018-05-17T03:30:16.498Z,23.57
2018-05-17T03:32:43.811Z,27.50
2018-05-17T03:35:11.159Z,25.10
2018-05-17T03:37:38.598Z,24.43
2018-05-17T03:40:06.017Z,25.80
2018-05-17T03:42:33.298Z,25.57
2018-05-17T03:45:00.720Z,23.53
2018-05-17T03:47:28.099Z,24.80
2018-05-17T03:49:55.393Z,25.77
2018-05-17T03:52:22.666Z,27.70
2018-05-17T03:54:49.963Z,27.73
2018-05-17T03:57:17.295Z,27.83
2018-05-17T03:59:44.665Z,27.13
2018-05-17T04:02:17.713Z,23.23
2018-05-17T04:04:50.803Z,24.97
2018-05-17T04:07:18.142Z,23.40
2018-05-17T04:09:45.435Z,23.37
2018-05-17T04:12:12.797Z,25.00
2018-05-17T04:14:40.328Z,22.77
2018-05-17T04:17:07.790Z,23.30
2018-05-17T04:19:35.219Z,22.57
2018-05-17T04:22:02.505Z,20.70
2018-05-17T04:24:29.861Z,20.57
2018-05-17T04:26:57.243Z,18.20
2018-05-17T04:29:24.569Z,19.23
2018-05-17T04:31:52.071Z,21.23
2018-05-17T04:34:19.362Z,19.30
2018-05-17T04:36:46.649Z,19.17
2018-05-17T04:39:14.029Z,15.53
2018-05-17T04:41:41.433Z,15.10
2018-05-17T04:44:09.403Z,13.90
2018-05-17T04:46:36.946Z,14.07
2018-05-17T04:49:04.248Z,13.17
2018-05-17T04:51:31.537Z,13.33
2018-05-17T04:53:58.885Z,11.90
2018-05-17T04:56:26.196Z,11.80
2018-05-17T04:58:53.529Z,12.80
2018-05-17T05:01:20.827Z,10.80
2018-05-17T05:03:48.146Z,9.60
2018-05-17T05:06:15.429Z,8.73
2018-05-17T05:08:42.865Z,8.70
2018-05-17T05:11:10.292Z,7.77
2018-05-17T05:13:37.767Z,8.57
2018-05-17T05:16:05.128Z,7.43
2018-05-17T05:18:32.521Z,9.23
2018-05-17T05:20:59.886Z,6.90
2018-05-17T05:23:27.248Z,6.73
2018-05-17T05:25:54.524Z,6.67
2018-05-17T05:28:21.841Z,7.10
2018-05-17T05:30:49.128Z,5.23
2018-05-17T05:33:16.425Z,5.87
2018-05-17T05:35:43.829Z,5.63
2018-05-17T05:38:11.146Z,5.93
2018-05-17T05:40:38.651Z,6.37
2018-05-17T05:43:06.126Z,5.40
2018-05-17T05:45:33.432Z,4.90
2018-05-17T05:48:00.912Z,5.33
2018-05-17T05:50:28.276Z,4.70
2018-05-17T05:52:55.617Z,6.00
2018-05-17T05:55:22.920Z,4.30
2018-05-17T05:57:50.308Z,4.00
2018-05-17T06:00:17.664Z,5.90
2018-05-17T06:02:45.050Z,4.47
2018-05-17T06:05:12.598Z,4.60
2018-05-17T06:07:40.058Z,3.23
2018-05-17T06:10:07.667Z,3.70
2018-05-17T06:12:35.032Z,4.03
2018-05-17T06:15:02.315Z,3.87
2018-05-17T06:17:29.632Z,4.50
2018-05-17T06:19:56.930Z,4.00
2018-05-17T06:22:24.477Z,3.50
2018-05-17T06:24:51.763Z,9.83
2018-05-17T06:27:19.048Z,7.17
2018-05-17T06:29:46.701Z,4.17
2018-05-17T06:32:14.046Z,4.03
2018-05-17T06:34:41.426Z,4.20
2018-05-17T06:37:08.903Z,3.70
2018-05-17T06:39:36.446Z,4.63
2018-05-17T06:42:04.378Z,3.40
2018-05-17T06:44:31.863Z,2.90
2018-05-17T06:46:59.202Z,3.60
2018-05-17T06:49:26.547Z,3.27
2018-05-17T06:51:53.928Z,3.77
2018-05-17T06:59:27.269Z,3.23
2018-05-17T07:01:54.679Z,3.90
2018-05-17T07:04:21.967Z,3.20
2018-05-17T07:11:55.149Z,2.97
2018-05-17T07:14:23.189Z,3.90
2018-05-17T07:16:54.422Z,2.83
2018-05-17T07:19:21.811Z,3.03
2018-05-17T07:21:49.125Z,3.50
2018-05-17T07:24:16.772Z,2.90
2018-05-17T07:26:44.377Z,3.40
2018-05-17T07:29:12.445Z,3.50
2018-05-17T07:31:40.307Z,3.93
2018-05-17T07:34:07.742Z,4.27
2018-05-17T07:36:35.261Z,4.10
2018-05-17T07:39:02.658Z,3.90
2018-05-17T07:41:29.982Z,4.53
2018-05-17T07:46:29.358Z,4.33
2018-05-17T07:48:58.644Z,5.10
2018-05-17T07:51:25.953Z,5.40
2018-05-17T07:56:24.927Z,5.00
2018-05-17T07:58:52.596Z,5.93
2018-05-17T08:03:54.150Z,5.63
2018-05-17T08:06:21.476Z,4.63
2018-05-17T08:08:49.523Z,5.50
2018-05-17T08:11:16.961Z,5.70
2018-05-17T08:13:44.471Z,5.77
2018-05-17T08:16:11.911Z,4.50
2018-05-17T08:18:39.390Z,5.67
2018-05-17T08:21:07.177Z,5.00
2018-05-17T08:23:34.748Z,5.80
2018-05-17T08:26:02.349Z,5.40
2018-05-17T08:28:29.701Z,5.20
2018-05-17T08:30:57.483Z,5.30
2018-05-17T08:33:25.087Z,5.50
2018-05-17T08:35:52.503Z,4.77
2018-05-17T08:38:19.853Z,5.70
2018-05-17T08:40:47.339Z,6.37
2018-05-17T08:45:47.048Z,6.60
2018-05-17T08:48:14.425Z,5.60
2018-05-17T08:50:41.777Z,5.03
2018-05-17T08:53:09.890Z,6.30
2018-05-17T08:55:37.417Z,5.47
2018-05-17T08:58:06.680Z,5.07
2018-05-17T09:00:34.473Z,5.13
2018-05-17T09:03:02.740Z,6.03
2018-05-17T09:05:30.386Z,5.00
2018-05-17T09:07:57.819Z,5.23
2018-05-17T09:10:25.132Z,5.50
2018-05-17T09:12:52.597Z,5.97
2018-05-17T09:17:51.720Z,5.13
2018-05-17T09:20:19.164Z,5.47
2018-05-17T09:22:46.641Z,5.63
2018-05-17T09:25:14.081Z,4.47
2018-05-17T09:27:41.496Z,4.60
2018-05-17T09:30:09.652Z,5.23
2018-05-17T09:32:37.625Z,6.20
2018-05-17T09:35:06.256Z,6.30
2018-05-17T09:37:34.299Z,7.07
2018-05-17T09:40:01.877Z,11.30
2018-05-17T09:42:29.876Z,12.57
2018-05-17T09:44:57.487Z,7.57
2018-05-17T09:47:25.130Z,5.27
2018-05-17T09:49:52.504Z,6.20
2018-05-17T09:52:21.631Z,4.73
2018-05-17T09:54:49.260Z,4.87
2018-05-17T09:57:16.825Z,6.60
2018-05-17T09:59:44.290Z,5.40
2018-05-17T10:02:12.453Z,4.53
2018-05-17T10:07:12.158Z,5.47
2018-05-17T10:09:39.733Z,6.10
2018-05-17T10:12:07.583Z,8.03
2018-05-17T10:14:35.624Z,5.97
2018-05-17T10:19:36.198Z,10.10
2018-05-17T10:22:07.383Z,7.00
2018-05-17T10:24:35.568Z,6.37
2018-05-17T10:27:03.212Z,7.03
2018-05-17T10:32:02.726Z,7.60
2018-05-17T10:34:30.147Z,9.00
2018-05-17T10:36:57.486Z,6.30
2018-05-17T10:39:25.616Z,7.27
2018-05-17T10:41:53.283Z,6.20
2018-05-17T10:44:21.420Z,6.50
2018-05-17T10:46:48.973Z,7.77
2018-05-17T10:49:16.448Z,7.20
2018-05-17T10:51:44.534Z,7.53
2018-05-17T10:54:12.146Z,8.50
2018-05-17T10:56:40.551Z,6.63
2018-05-17T10:59:08.261Z,7.20
2018-05-17T11:01:35.802Z,7.20
2018-05-17T11:04:03.372Z,8.60
2018-05-17T11:06:30.924Z,7.50
2018-05-17T11:08:58.235Z,7.23
2018-05-17T11:11:26.406Z,5.60
2018-05-17T11:13:54.206Z,6.50
2018-05-17T11:16:21.943Z,6.30
2018-05-17T11:18:49.439Z,5.57
2018-05-17T11:21:18.611Z,5.40
2018-05-17T11:23:46.185Z,6.20
2018-05-17T11:26:13.635Z,5.03
2018-05-17T11:28:41.311Z,4.40
2018-05-17T11:31:09.011Z,4.20
2018-05-17T11:33:36.991Z,4.73
2018-05-17T11:36:04.697Z,4.80
2018-05-17T11:38:32.231Z,4.63
2018-05-17T11:41:00.206Z,4.40
2018-05-17T11:43:27.609Z,3.80
2018-05-17T11:45:54.977Z,4.23
2018-05-17T11:48:22.373Z,4.00
2018-05-17T11:50:50.428Z,4.97
2018-05-17T11:58:21.337Z,4.50
2018-05-17T12:00:48.796Z,5.40
2018-05-17T12:03:16.649Z,6.37
2018-05-17T12:05:44.097Z,4.50
2018-05-17T12:08:11.514Z,5.00
2018-05-17T12:13:10.846Z,6.00
2018-05-17T12:18:10.342Z,5.63
2018-05-17T12:20:38.020Z,4.70
2018-05-17T12:25:37.094Z,6.70
2018-05-17T12:28:04.556Z,7.63
2018-05-17T12:30:32.628Z,8.33
2018-05-17T12:33:00.277Z,8.90
2018-05-17T12:40:32.849Z,6.83
2018-05-17T12:43:01.365Z,6.60
2018-05-17T12:45:29.159Z,6.10
2018-05-17T12:48:07.459Z,6.27
2018-05-17T12:50:35.273Z,6.50
2018-05-17T12:53:06.599Z,7.60
2018-05-17T12:55:34.520Z,6.27
2018-05-17T12:58:03.686Z,6.03
2018-05-17T13:00:31.257Z,6.10
2018-05-17T13:05:31.323Z,5.60
2018-05-17T13:10:30.739Z,5.40
2018-05-17T13:13:02.052Z,5.10
2018-05-17T13:15:29.566Z,5.37
2018-05-17T13:17:57.425Z,6.60
2018-05-17T13:20:26.645Z,5.87
2018-05-17T13:27:58.487Z,7.00
2018-05-17T13:30:26.087Z,7.40
2018-05-17T13:32:55.335Z,6.10
2018-05-17T13:35:22.896Z,5.83
2018-05-17T13:40:22.629Z,7.67
2018-05-17T13:42:50.225Z,7.20
2018-05-17T13:45:21.219Z,4.80
2018-05-17T13:47:49.127Z,3.80
2018-05-17T13:55:22.962Z,2.97
2018-05-17T13:57:50.600Z,3.10
2018-05-17T14:02:50.792Z,3.37
2018-05-17T14:07:54.555Z,3.40
2018-05-17T14:10:22.735Z,3.50
2018-05-17T14:12:50.310Z,3.00
2018-05-17T14:15:18.618Z,3.43
2018-05-17T14:17:46.125Z,3.60
2018-05-17T14:22:46.165Z,3.73
2018-05-17T14:27:45.949Z,3.70
2018-05-17T14:30:13.443Z,4.30
2018-05-17T14:32:41.087Z,4.83
2018-05-17T14:35:08.624Z,5.00
2018-05-17T14:37:36.383Z,5.23
2018-05-17T14:40:04.183Z,7.00
2018-05-17T14:42:31.633Z,7.47
2018-05-17T14:44:59.082Z,7.63
2018-05-17T14:47:26.369Z,8.57
2018-05-17T14:49:53.719Z,7.40
2018-05-17T14:52:21.096Z,8.97
2018-05-17T14:54:48.628Z,10.10
2018-05-17T14:57:16.220Z,9.30
2018-05-17T14:59:43.674Z,8.40
2018-05-17T15:02:11.092Z,9.43
2018-05-17T15:04:39.167Z,9.03
2018-05-17T15:07:11.015Z,7.50
2018-05-17T15:09:38.724Z,9.20
2018-05-17T15:12:06.458Z,7.57
2018-05-17T15:14:33.986Z,8.80
2018-05-17T15:17:02.027Z,9.13
2018-05-17T15:19:29.494Z,9.07
2018-05-17T15:21:57.658Z,8.77
2018-05-17T15:24:25.066Z,9.37
2018-05-17T15:29:24.698Z,11.43
2018-05-17T15:31:52.369Z,10.50
2018-05-17T15:34:20.110Z,13.00
2018-05-17T15:36:48.653Z,12.60
2018-05-17T15:39:16.106Z,15.93
2018-05-17T15:41:44.445Z,14.17
2018-05-17T15:44:12.203Z,14.83
2018-05-17T15:46:39.832Z,16.80
2018-05-17T15:49:07.538Z,16.37
2018-05-17T15:51:34.988Z,16.53
2018-05-17T15:54:02.488Z,16.07
2018-05-17T15:56:29.976Z,15.27
2018-05-17T15:58:57.330Z,14.50
2018-05-17T16:01:24.683Z,16.67
2018-05-17T16:03:52.088Z,15.93
2018-05-17T16:06:19.677Z,15.07
2018-05-17T16:08:47.227Z,14.53
2018-05-17T16:11:14.699Z,13.90
2018-05-17T16:13:42.327Z,15.07
2018-05-17T16:16:09.838Z,13.27
2018-05-17T16:18:37.464Z,13.30
2018-05-17T16:21:04.927Z,11.20
2018-05-17T16:23:32.202Z,11.70
2018-05-17T16:25:59.739Z,11.93
2018-05-17T16:28:27.196Z,10.70
2018-05-17T16:30:54.769Z,9.73
2018-05-17T16:33:22.056Z,11.37
2018-05-17T16:35:49.568Z,11.57
2018-05-17T16:38:16.966Z,12.50
2018-05-17T16:40:44.554Z,11.70
2018-05-17T16:43:12.110Z,11.30
2018-05-17T16:45:39.818Z,12.90
2018-05-17T16:48:07.559Z,12.63
2018-05-17T16:50:34.973Z,16.10
2018-05-17T16:53:02.471Z,17.50
2018-05-17T16:55:29.703Z,16.13
2018-05-17T16:57:57.180Z,18.60
2018-05-17T17:00:24.614Z,16.13
2018-05-17T17:02:52.213Z,17.70
2018-05-17T17:05:19.643Z,18.23
2018-05-17T17:07:47.245Z,18.97
2018-05-17T17:10:14.666Z,20.27
2018-05-17T17:12:42.171Z,19.03
2018-05-17T17:15:09.655Z,19.70
2018-05-17T17:17:37.382Z,21.10
2018-05-17T17:20:05.003Z,22.23
2018-05-17T17:22:32.481Z,22.80
2018-05-17T17:24:59.903Z,23.93
2018-05-17T17:27:27.253Z,24.90
2018-05-17T17:29:55.491Z,24.90
2018-05-17T17:32:23.319Z,27.00
2018-05-17T17:34:50.726Z,26.53
2018-05-17T17:37:18.065Z,27.40
2018-05-17T17:39:45.494Z,24.90
2018-05-17T17:42:13.020Z,27.37
2018-05-17T17:44:40.907Z,28.60
2018-05-17T17:47:08.546Z,31.03
2018-05-17T17:49:36.479Z,30.50
2018-05-17T17:52:03.995Z,35.63
2018-05-17T17:54:31.568Z,35.67
2018-05-17T17:56:59.280Z,37.73
2018-05-17T17:59:26.670Z,35.83
2018-05-17T18:01:54.259Z,38.70
2018-05-17T18:04:21.645Z,37.63
2018-05-17T18:06:48.989Z,39.77
2018-05-17T18:09:16.424Z,37.33
2018-05-17T18:11:43.909Z,35.80
2018-05-17T18:14:11.728Z,37.90
2018-05-17T18:16:39.777Z,37.60
2018-05-17T18:19:07.303Z,37.70
2018-05-17T18:21:34.768Z,38.27
2018-05-17T18:24:03.001Z,37.83
2018-05-17T18:26:30.356Z,38.80
2018-05-17T18:28:57.832Z,38.67
2018-05-17T18:31:25.138Z,39.17
2018-05-17T18:33:52.606Z,39.97
2018-05-17T18:36:20.704Z,41.10
2018-05-17T18:38:48.309Z,41.60
2018-05-17T18:41:16.500Z,39.20
2018-05-17T18:43:43.949Z,37.80
2018-05-17T18:46:11.315Z,42.60
2018-05-17T18:48:38.772Z,40.63
2018-05-17T18:51:06.321Z,41.57
2018-05-17T18:53:33.605Z,43.20
2018-05-17T18:56:01.192Z,42.40
2018-05-17T18:58:28.820Z,44.60
2018-05-17T19:00:56.262Z,43.63
2018-05-17T19:03:23.594Z,44.03
2018-05-17T19:05:50.926Z,43.77
2018-05-17T19:08:18.311Z,42.50
2018-05-17T19:10:45.653Z,45.47
2018-05-17T19:13:13.089Z,43.23
2018-05-17T19:15:40.809Z,44.33
2018-05-17T19:18:08.257Z,44.77
2018-05-17T19:20:36.428Z,45.90
2018-05-17T19:23:03.778Z,43.80
2018-05-17T19:25:31.427Z,45.20
2018-05-17T19:27:58.789Z,47.33
2018-05-17T19:30:26.129Z,44.13
2018-05-17T19:32:53.464Z,42.80
2018-05-17T19:35:20.806Z,45.80
2018-05-17T19:37:48.130Z,44.87
2018-05-17T19:40:15.466Z,47.27
2018-05-17T19:42:42.918Z,44.07
2018-05-17T19:45:10.748Z,45.47
2018-05-17T19:47:38.545Z,44.87
2018-05-17T19:50:07.183Z,46.00
2018-05-17T19:52:34.556Z,48.23
2018-05-17T19:55:01.906Z,47.50
2018-05-17T19:57:29.316Z,45.40
2018-05-17T19:59:56.786Z,47.47
2018-05-17T20:02:24.236Z,44.60
2018-05-17T20:04:51.519Z,44.17
2018-05-17T20:07:19.119Z,46.77
2018-05-17T20:09:46.506Z,46.30
2018-05-17T20:12:14.148Z,46.40
2018-05-17T20:14:41.877Z,46.33
2018-05-17T20:17:09.348Z,47.13
2018-05-17T20:19:36.849Z,46.27
2018-05-17T20:22:04.371Z,44.27
2018-05-17T20:24:31.682Z,44.03
2018-05-17T20:26:59.055Z,45.70
2018-05-17T20:29:26.375Z,43.57
2018-05-17T20:31:53.695Z,45.03
2018-05-17T20:34:21.150Z,46.53
2018-05-17T20:36:48.587Z,44.40
2018-05-17T20:39:15.926Z,44.43
2018-05-17T20:41:43.742Z,45.60
2018-05-17T20:44:11.253Z,41.90
2018-05-17T20:46:38.880Z,47.83
2018-05-17T20:49:07.219Z,47.03
2018-05-17T20:51:34.569Z,46.10
2018-05-17T20:54:01.987Z,46.10
2018-05-17T20:56:29.304Z,45.20
2018-05-17T20:58:56.636Z,47.03
2018-05-17T21:01:23.910Z,46.03
2018-05-17T21:03:51.249Z,48.20
2018-05-17T21:06:18.631Z,47.83
2018-05-17T21:08:46.053Z,49.73
2018-05-17T21:11:13.787Z,50.37
2018-05-17T21:13:41.928Z,50.60
2018-05-17T21:16:09.547Z,48.33
2018-05-17T21:18:37.424Z,52.60
2018-05-17T21:21:04.834Z,47.80
2018-05-17T21:23:32.205Z,54.17
2018-05-17T21:25:59.807Z,50.63
2018-05-17T21:28:27.138Z,52.53
2018-05-17T21:30:54.965Z,52.00
2018-05-17T21:33:22.534Z,52.80
2018-05-17T21:35:49.848Z,49.87
2018-05-17T21:38:20.855Z,50.27
2018-05-17T21:40:48.580Z,51.50
2018-05-17T21:43:16.011Z,51.73
2018-05-17T21:45:43.617Z,55.87
2018-05-17T21:48:11.138Z,55.90
2018-05-17T21:50:39.252Z,55.47
2018-05-17T21:53:07.179Z,58.37
2018-05-17T21:55:36.169Z,55.37
2018-05-17T21:58:03.465Z,55.47
2018-05-17T22:00:31.363Z,53.07
2018-05-17T22:02:58.730Z,54.07
2018-05-17T22:05:28.301Z,53.93
2018-05-17T22:07:55.926Z,50.97
2018-05-17T22:10:24.178Z,52.00
2018-05-17T22:12:51.513Z,53.20
2018-05-17T22:15:19.386Z,55.63
2018-05-17T22:17:46.699Z,53.50
2018-05-17T22:20:14.273Z,51.77
2018-05-17T22:22:41.741Z,49.30
2018-05-17T22:25:14.598Z,49.30
2018-05-17T22:27:41.973Z,52.10
2018-05-17T22:30:09.870Z,54.33
2018-05-17T22:32:37.693Z,50.57
2018-05-17T22:35:05.010Z,51.43
2018-05-17T22:37:33.378Z,53.60
2018-05-17T22:40:00.903Z,47.50
2018-05-17T22:42:28.277Z,51.40
2018-05-17T22:44:55.657Z,49.03
2018-05-17T22:47:22.982Z,52.90
2018-05-17T22:49:50.446Z,49.67
2018-05-17T22:52:17.758Z,48.60
2018-05-17T22:54:45.268Z,50.83
2018-05-17T22:57:12.837Z,51.30
2018-05-17T22:59:40.345Z,51.10
2018-05-17T23:02:07.919Z,50.27
2018-05-17T23:04:35.371Z,51.27
2018-05-17T23:07:02.685Z,49.10
2018-05-17T23:09:30.228Z,51.90
2018-05-17T23:11:57.695Z,52.10
2018-05-17T23:14:25.552Z,53.27
2018-05-17T23:16:53.493Z,53.37
2018-05-17T23:19:20.879Z,53.07
2018-05-17T23:21:48.198Z,53.90
2018-05-17T23:24:15.522Z,53.90
2018-05-17T23:26:43.116Z,53.30
2018-05-17T23:29:10.578Z,51.50
2018-05-17T23:31:38.073Z,54.87
2018-05-17T23:34:05.422Z,56.27
2018-05-17T23:36:33.031Z,54.93
2018-05-17T23:39:00.442Z,55.50
2018-05-17T23:41:33.757Z,50.80
2018-05-17T23:44:01.471Z,53.43
2018-05-17T23:46:29.137Z,52.57
2018-05-17T23:48:56.498Z,55.03
2018-05-17T23:51:23.974Z,52.27
2018-05-17T23:53:51.350Z,52.23
2018-05-17T23:56:18.706Z,54.00
2018-05-17T23:58:46.009Z,52.37
